createdAt,value
2023-01-08T00:03:52.830Z,6.90
2023-01-08T00:09:14.092Z,7.05
2023-01-08T00:14:34.763Z,8.40
2023-01-08T00:19:55.612Z,9.52
2023-01-08T00:25:17.429Z,8.52
2023-01-08T00:30:38.465Z,9.68
2023-01-08T00:35:59.762Z,7.63
2023-01-08T00:41:20.541Z,8.52
2023-01-08T00:46:41.324Z,8.07
2023-01-08T00:52:01.995Z,9.85
2023-01-08T00:57:22.913Z,8.18
2023-01-08T01:02:44.278Z,9.32
2023-01-08T01:08:05.310Z,10.23
2023-01-08T01:13:26.300Z,7.75
2023-01-08T01:18:47.294Z,8.75
2023-01-08T01:24:10.522Z,8.98
2023-01-08T01:29:31.454Z,9.23
2023-01-08T01:34:52.296Z,9.75
2023-01-08T01:40:12.912Z,9.95
2023-01-08T01:45:33.581Z,10.57
2023-01-08T01:50:54.407Z,12.80
2023-01-08T01:56:16.020Z,12.15
2023-01-08T02:01:36.959Z,9.77
2023-01-08T02:07:09.222Z,9.68
2023-01-08T02:12:35.986Z,11.23
2023-01-08T02:18:28.851Z,12.90
2023-01-08T02:24:01.876Z,10.40
2023-01-08T02:29:25.583Z,12.45
2023-01-08T02:34:46.169Z,12.77
2023-01-08T02:40:30.736Z,11.60
2023-01-08T02:45:57.286Z,11.82
2023-01-08T02:51:49.773Z,13.80
2023-01-08T02:57:13.921Z,16.15
2023-01-08T03:02:37.181Z,14.63
2023-01-08T03:07:58.059Z,13.75
2023-01-08T03:13:34.994Z,14.77
2023-01-08T03:19:02.715Z,14.15
2023-01-08T03:24:29.693Z,11.70
2023-01-08T03:29:53.720Z,12.30
2023-01-08T03:35:19.638Z,12.55
2023-01-08T03:40:46.258Z,13.60
2023-01-08T03:46:15.665Z,15.07
2023-01-08T03:51:44.304Z,14.30
2023-01-08T03:57:05.231Z,14.35
2023-01-08T04:02:25.969Z,13.05
2023-01-08T04:07:47.029Z,15.50
2023-01-08T04:13:07.867Z,17.02
2023-01-08T04:18:28.538Z,12.00
2023-01-08T04:23:49.146Z,12.80
2023-01-08T04:29:10.889Z,14.95
2023-01-08T04:34:31.753Z,13.07
2023-01-08T04:39:52.279Z,14.73
2023-01-08T04:45:13.228Z,13.55
2023-01-08T04:50:34.243Z,13.88
2023-01-08T04:55:54.938Z,13.52
2023-01-08T05:01:21.049Z,11.88
2023-01-08T05:06:41.844Z,13.15
2023-01-08T05:12:02.679Z,13.00
2023-01-08T05:17:23.344Z,12.73
2023-01-08T05:22:44.091Z,12.50
2023-01-08T05:28:04.837Z,14.13
2023-01-08T05:33:26.325Z,14.77
2023-01-08T05:38:47.365Z,14.05
2023-01-08T05:44:07.944Z,12.77
2023-01-08T05:49:28.526Z,16.67
2023-01-08T05:54:49.149Z,15.60
2023-01-08T06:00:11.056Z,15.05
2023-01-08T06:05:34.621Z,13.52
2023-01-08T06:10:59.451Z,15.25
2023-01-08T06:16:21.198Z,13.98
2023-01-08T06:21:42.058Z,14.25
2023-01-08T06:27:02.821Z,12.20
2023-01-08T06:32:23.465Z,14.75
2023-01-08T06:37:44.175Z,14.82
2023-01-08T06:43:05.638Z,14.80
2023-01-08T06:48:26.943Z,11.95
2023-01-08T06:53:48.889Z,10.68
2023-01-08T06:59:09.466Z,14.18
2023-01-08T07:04:30.295Z,11.05
2023-01-08T07:09:51.013Z,13.82
2023-01-08T07:15:12.058Z,14.13
2023-01-08T07:20:34.314Z,15.32
2023-01-08T07:25:54.943Z,12.90
2023-01-08T07:31:15.647Z,13.40
2023-01-08T07:36:36.262Z,14.38
2023-01-08T07:41:56.935Z,11.05
2023-01-08T07:47:19.009Z,12.98
2023-01-08T07:52:40.067Z,9.75
2023-01-08T07:58:00.739Z,10.27
2023-01-08T08:03:22.274Z,9.00
2023-01-08T08:08:43.168Z,10.95
2023-01-08T08:14:05.025Z,9.23
2023-01-08T08:19:25.969Z,9.70
2023-01-08T08:24:46.839Z,10.98
2023-01-08T08:30:08.564Z,11.13
2023-01-08T08:35:30.204Z,13.82
2023-01-08T08:40:51.028Z,10.32
2023-01-08T08:46:11.801Z,14.00
2023-01-08T08:51:32.496Z,10.80
2023-01-08T08:56:53.316Z,13.50
2023-01-08T09:02:14.437Z,12.93
2023-01-08T09:07:35.585Z,14.55
2023-01-08T09:12:56.431Z,14.10
2023-01-08T09:18:16.965Z,14.82
2023-01-08T09:23:38.831Z,16.88
2023-01-08T09:28:59.780Z,14.88
2023-01-08T09:34:20.709Z,12.82
2023-01-08T09:39:42.598Z,10.27
2023-01-08T09:45:06.676Z,12.23
2023-01-08T09:50:29.369Z,12.75
2023-01-08T09:56:09.648Z,8.60
2023-01-08T10:01:41.303Z,10.73
2023-01-08T10:07:23.022Z,11.27
2023-01-08T10:12:44.888Z,12.27
2023-01-08T10:18:12.129Z,12.07
2023-01-08T10:23:33.130Z,13.43
2023-01-08T10:29:11.468Z,10.40
2023-01-08T10:34:50.290Z,12.25
2023-01-08T10:40:29.471Z,9.07
2023-01-08T10:46:00.055Z,10.43
2023-01-08T10:51:24.915Z,10.35
2023-01-08T10:56:46.504Z,13.63
2023-01-08T11:02:31.248Z,9.55
2023-01-08T11:07:56.458Z,12.57
2023-01-08T11:13:18.100Z,13.32
2023-01-08T11:18:49.864Z,11.70
2023-01-08T11:24:18.084Z,10.90
2023-01-08T11:29:51.775Z,10.07
2023-01-08T11:35:18.969Z,10.00
2023-01-08T11:40:43.036Z,10.77
2023-01-08T11:46:16.153Z,11.48
2023-01-08T11:51:44.461Z,9.00
2023-01-08T11:57:36.151Z,9.77
2023-01-08T12:03:03.485Z,8.18
2023-01-08T12:08:55.777Z,9.68
2023-01-08T12:14:31.913Z,8.70
2023-01-08T12:20:06.406Z,11.52
2023-01-08T12:25:56.130Z,8.68
2023-01-08T12:31:32.288Z,9.52
2023-01-08T12:37:03.536Z,8.02
2023-01-08T12:42:28.333Z,9.07
2023-01-08T12:47:54.985Z,8.98
2023-01-08T12:54:00.488Z,10.55
2023-01-08T12:59:21.465Z,9.85
2023-01-08T13:04:47.698Z,12.68
2023-01-08T13:10:20.762Z,9.85
2023-01-08T13:15:41.698Z,7.85
2023-01-08T13:21:04.282Z,9.88
2023-01-08T13:26:33.272Z,8.63
2023-01-08T13:31:54.136Z,10.18
2023-01-08T13:37:27.744Z,9.07
2023-01-08T13:42:49.258Z,11.68
2023-01-08T13:48:24.964Z,9.82
2023-01-08T13:53:46.551Z,11.02
2023-01-08T13:59:37.379Z,8.98
2023-01-08T14:05:01.547Z,10.35
2023-01-08T14:10:23.357Z,9.80
2023-01-08T14:15:44.584Z,7.70
2023-01-08T14:21:08.026Z,7.07
2023-01-08T14:26:38.741Z,10.32
2023-01-08T14:32:02.715Z,8.82
2023-01-08T14:37:24.056Z,8.60
2023-01-08T14:42:53.554Z,8.05
2023-01-08T14:48:34.598Z,10.17
2023-01-08T14:54:03.802Z,10.63
2023-01-08T14:59:30.134Z,11.33
2023-01-08T15:05:01.797Z,10.35
2023-01-08T15:10:32.319Z,11.65
2023-01-08T15:16:00.963Z,9.77
2023-01-08T15:21:23.687Z,9.35
2023-01-08T15:26:44.644Z,11.70
2023-01-08T15:32:12.420Z,12.90
2023-01-08T15:37:33.596Z,10.73
2023-01-08T15:43:12.464Z,14.10
2023-01-08T15:48:33.380Z,13.73
2023-01-08T15:53:54.437Z,14.77
2023-01-08T15:59:15.048Z,11.05
2023-01-08T16:04:35.726Z,14.40
2023-01-08T16:09:56.559Z,12.95
2023-01-08T16:15:17.499Z,14.60
2023-01-08T16:20:38.728Z,12.15
2023-01-08T16:25:59.791Z,9.95
2023-01-08T16:31:20.537Z,11.85
2023-01-08T16:36:41.168Z,13.40
2023-01-08T16:42:02.169Z,8.82
2023-01-08T16:47:23.089Z,11.85
2023-01-08T16:52:44.670Z,9.10
2023-01-08T16:58:05.790Z,11.75
2023-01-08T17:03:26.739Z,10.95
2023-01-08T17:08:47.210Z,9.90
2023-01-08T17:14:09.108Z,10.27
2023-01-08T17:19:29.702Z,13.25
2023-01-08T17:24:50.428Z,11.60
2023-01-08T17:30:12.827Z,12.77
2023-01-08T17:35:34.035Z,14.85
2023-01-08T17:40:55.137Z,16.60
2023-01-08T17:46:16.092Z,13.98
2023-01-08T17:51:38.590Z,11.55
2023-01-08T17:56:59.540Z,13.30
2023-01-08T18:02:20.732Z,16.60
2023-01-08T18:07:41.822Z,14.80
2023-01-08T18:13:04.573Z,11.57
2023-01-08T18:18:25.351Z,13.18
2023-01-08T18:23:49.103Z,15.52
2023-01-08T18:29:10.506Z,16.80
2023-01-08T18:34:31.545Z,19.10
2023-01-08T18:39:52.325Z,18.23
2023-01-08T18:45:15.189Z,18.60
2023-01-08T18:50:40.547Z,16.10
2023-01-08T18:56:01.910Z,14.50
2023-01-08T19:01:23.165Z,13.60
2023-01-08T19:06:45.062Z,18.58
2023-01-08T19:12:06.552Z,20.88
2023-01-08T19:17:31.011Z,14.73
2023-01-08T19:22:54.238Z,14.38
2023-01-08T19:28:15.147Z,14.48
2023-01-08T19:33:35.842Z,12.65
2023-01-08T19:38:56.808Z,15.68
2023-01-08T19:44:17.520Z,13.90
2023-01-08T19:49:41.538Z,15.57
2023-01-08T19:55:02.642Z,16.00
2023-01-08T20:00:23.658Z,12.07
2023-01-08T20:05:44.464Z,15.77
2023-01-08T20:11:07.461Z,12.90
2023-01-08T20:16:30.471Z,13.68
2023-01-08T20:21:51.300Z,13.40
2023-01-08T20:27:12.337Z,14.88
2023-01-08T20:32:33.752Z,10.55
2023-01-08T20:37:54.465Z,18.45
2023-01-08T20:43:17.639Z,12.90
2023-01-08T20:48:46.837Z,13.63
2023-01-08T20:54:11.650Z,15.45
2023-01-08T20:59:33.636Z,13.55
2023-01-08T21:04:55.444Z,18.60
2023-01-08T21:10:16.677Z,23.70
2023-01-08T21:15:37.770Z,18.92
2023-01-08T21:21:05.734Z,26.60
2023-01-08T21:26:26.786Z,17.60
2023-01-08T21:31:48.111Z,24.10
2023-01-08T21:37:08.991Z,15.73
2023-01-08T21:42:48.373Z,28.65
2023-01-08T21:48:09.549Z,21.65
2023-01-08T21:53:36.161Z,17.30
2023-01-08T21:58:57.498Z,24.73
2023-01-08T22:04:18.083Z,24.38
2023-01-08T22:09:38.906Z,32.15
2023-01-08T22:15:00.054Z,25.17
2023-01-08T22:20:20.926Z,19.35
2023-01-08T22:25:41.761Z,20.52
2023-01-08T22:31:05.980Z,26.15
2023-01-08T22:36:27.145Z,24.95
2023-01-08T22:41:48.140Z,33.42
2023-01-08T22:47:10.212Z,23.10
2023-01-08T22:52:30.960Z,34.30
2023-01-08T22:57:54.441Z,22.85
2023-01-08T23:03:15.436Z,16.95
2023-01-08T23:08:36.254Z,14.30
2023-01-08T23:13:57.083Z,20.10
2023-01-08T23:19:17.799Z,18.02
2023-01-08T23:24:38.509Z,18.23
2023-01-08T23:29:59.710Z,16.13
2023-01-08T23:35:20.978Z,23.67
2023-01-08T23:40:45.946Z,13.18
2023-01-08T23:46:07.850Z,20.85
2023-01-08T23:51:28.669Z,16.50
2023-01-08T23:56:49.595Z,15.02
